Yonkers, NY (10710)

7:00 PM EST on February 27, 2017 (GMT -0500)
Homefield | | Change Station

Elev 150 ft 40.97 °N, 73.87 °W | Updated 22 seconds ago

Partly Cloudy
Partly Cloudy
49.5 °F
Feels Like 50 °F
N
0.0
Wind Variable Wind from ENE
Gusts 0.0 mph

Today
High -- | Low -- °F
--% Chance of Precip.
Yesterday
High -- | Low -- °F
Precip. -- in
Pressure 30.39 in
Visibility 10.0 miles
Clouds Few 11000 ft
Windchill 50 °F
Dew Point 23 °F
Humidity 35%
Rainfall 0.00 in
Snow Depth Not available.
6:32 AM 5:44 PM
New Moon, 2% visible
METAR KHPN 272356Z 19003KT 10SM FEW110 06/00 A3037 RMK AO2 SLP291 T00560000 10106 20050 53013
Pressure 30.39 in
Visibility 10.0 miles
Clouds Few 11000 ft
Windchill 50 °F
Dew Point 23 °F
Humidity 35%
Rainfall 0.00 in
Snow Depth Not available.
6:32 AM 5:44 PM
New Moon, 2% visible
METAR KHPN 272356Z 19003KT 10SM FEW110 06/00 A3037 RMK AO2 SLP291 T00560000 10106 20050 53013

Get Your Daily Forecast Email!

Thanks for signing up!

Be on the lookout for a verification email in your inbox.

You'll start receiving the daily forecast at 8 AM.

×

10-Day Weather Forecast

Almanac

Astronomy

Feb. 27, 2017 Rise Set
Actual Time
Civil Twilight
Nautical Twilight
Astronomical Twilight
Moon
Length of Visible Light
Length of Day
Tomorrow will be .
, % of the Moon is Illuminated

Today's Extremes

State Highs State Lows

Community

WunderPhotos

Upload Photos

1,962,540 photos uploaded!

WunderBlog® & News

Nearby

Air Quality

  Air Quality AQ Index Pollutant
Not available.

Snow Depth

Station Depth Elevation

Earthquake Activity

City Distance Mag. Time & Date
Minimum magnitude displayed is 2.5.

Coastal Water Temperatures

Place Temperature

Stations

Nearby Weather Stations

Station Location Temp. Windchill Dew Point Humidity Wind Precip. Elev Updated Type
                   

Watches & Warnings

There are currently no watches in effect.